sensor_id;sensor_type;location;lat;lon;timestamp;P1;durP1;ratioP1;P2;durP2;ratioP2
19679;SDS011;9989;48.962;9.182;2023-01-16T00:00:00;11.03;;;4.60;;
19679;SDS011;9989;48.962;9.182;2023-01-16T00:02:28;11.07;;;4.70;;
19679;SDS011;9989;48.962;9.182;2023-01-16T00:04:54;15.03;;;5.00;;
19679;SDS011;9989;48.962;9.182;2023-01-16T00:07:19;14.53;;;6.53;;
19679;SDS011;9989;48.962;9.182;2023-01-16T00:09:45;15.97;;;6.67;;
19679;SDS011;9989;48.962;9.182;2023-01-16T00:12:10;18.80;;;7.03;;
19679;SDS011;9989;48.962;9.182;2023-01-16T00:14:36;17.10;;;6.93;;
19679;SDS011;9989;48.962;9.182;2023-01-16T00:17:01;17.37;;;6.40;;
19679;SDS011;9989;48.962;9.182;2023-01-16T00:19:27;11.70;;;4.77;;
19679;SDS011;9989;48.962;9.182;2023-01-16T00:21:52;15.97;;;6.07;;
19679;SDS011;9989;48.962;9.182;2023-01-16T00:24:18;13.10;;;5.43;;
19679;SDS011;9989;48.962;9.182;2023-01-16T00:26:44;11.40;;;5.17;;
19679;SDS011;9989;48.962;9.182;2023-01-16T00:29:09;9.17;;;4.20;;
19679;SDS011;9989;48.962;9.182;2023-01-16T00:31:35;10.77;;;4.37;;
19679;SDS011;9989;48.962;9.182;2023-01-16T00:34:00;13.23;;;4.67;;
19679;SDS011;9989;48.962;9.182;2023-01-16T00:36:26;10.83;;;3.60;;
19679;SDS011;9989;48.962;9.182;2023-01-16T00:38:52;8.37;;;3.13;;
19679;SDS011;9989;48.962;9.182;2023-01-16T00:41:20;9.70;;;3.97;;
19679;SDS011;9989;48.962;9.182;2023-01-16T00:43:45;8.23;;;3.20;;
19679;SDS011;9989;48.962;9.182;2023-01-16T00:46:11;9.97;;;3.20;;
19679;SDS011;9989;48.962;9.182;2023-01-16T00:48:36;11.63;;;5.00;;
19679;SDS011;9989;48.962;9.182;2023-01-16T00:51:02;7.57;;;3.23;;
19679;SDS011;9989;48.962;9.182;2023-01-16T00:53:28;8.63;;;3.50;;
19679;SDS011;9989;48.962;9.182;2023-01-16T00:55:54;6.73;;;2.70;;
19679;SDS011;9989;48.962;9.182;2023-01-16T00:58:19;6.10;;;2.43;;
19679;SDS011;9989;48.962;9.182;2023-01-16T01:00:45;7.57;;;2.67;;
19679;SDS011;9989;48.962;9.182;2023-01-16T01:03:11;6.87;;;2.40;;
19679;SDS011;9989;48.962;9.182;2023-01-16T01:05:37;6.17;;;2.17;;
19679;SDS011;9989;48.962;9.182;2023-01-16T01:08:04;6.70;;;2.10;;
19679;SDS011;9989;48.962;9.182;2023-01-16T01:10:30;4.17;;;1.80;;
19679;SDS011;9989;48.962;9.182;2023-01-16T01:12:55;6.43;;;1.90;;
19679;SDS011;9989;48.962;9.182;2023-01-16T01:15:21;4.50;;;1.40;;
19679;SDS011;9989;48.962;9.182;2023-01-16T01:17:48;6.83;;;2.03;;
19679;SDS011;9989;48.962;9.182;2023-01-16T01:20:13;4.63;;;1.60;;
19679;SDS011;9989;48.962;9.182;2023-01-16T01:22:39;5.17;;;1.80;;
19679;SDS011;9989;48.962;9.182;2023-01-16T01:25:05;4.77;;;1.50;;
19679;SDS011;9989;48.962;9.182;2023-01-16T01:27:31;4.53;;;1.50;;
19679;SDS011;9989;48.962;9.182;2023-01-16T01:29:56;7.07;;;1.83;;
19679;SDS011;9989;48.962;9.182;2023-01-16T01:32:22;6.07;;;1.73;;
19679;SDS011;9989;48.962;9.182;2023-01-16T01:34:48;4.60;;;2.10;;
19679;SDS011;9989;48.962;9.182;2023-01-16T01:37:13;5.50;;;1.77;;
19679;SDS011;9989;48.962;9.182;2023-01-16T01:39:39;7.50;;;1.70;;
19679;SDS011;9989;48.962;9.182;2023-01-16T01:42:04;6.30;;;1.80;;
19679;SDS011;9989;48.962;9.182;2023-01-16T01:44:57;5.10;;;1.50;;
19679;SDS011;9989;48.962;9.182;2023-01-16T01:47:32;5.67;;;1.70;;
19679;SDS011;9989;48.962;9.182;2023-01-16T01:50:01;7.10;;;1.80;;
19679;SDS011;9989;48.962;9.182;2023-01-16T01:52:29;4.70;;;1.73;;
19679;SDS011;9989;48.962;9.182;2023-01-16T01:55:00;5.37;;;1.90;;
19679;SDS011;9989;48.962;9.182;2023-01-16T01:57:30;12.17;;;2.43;;
19679;SDS011;9989;48.962;9.182;2023-01-16T02:00:16;6.53;;;2.13;;
19679;SDS011;9989;48.962;9.182;2023-01-16T02:05:28;4.20;;;1.90;;
19679;SDS011;9989;48.962;9.182;2023-01-16T02:07:59;5.33;;;1.57;;
19679;SDS011;9989;48.962;9.182;2023-01-16T02:10:29;3.37;;;1.30;;
19679;SDS011;9989;48.962;9.182;2023-01-16T02:12:59;6.80;;;1.50;;
19679;SDS011;9989;48.962;9.182;2023-01-16T02:15:27;4.30;;;1.60;;
19679;SDS011;9989;48.962;9.182;2023-01-16T02:17:53;5.63;;;2.07;;
19679;SDS011;9989;48.962;9.182;2023-01-16T02:33:03;4.70;;;1.40;;
19679;SDS011;9989;48.962;9.182;2023-01-16T02:35:37;5.80;;;1.40;;
19679;SDS011;9989;48.962;9.182;2023-01-16T02:38:10;6.40;;;1.47;;
19679;SDS011;9989;48.962;9.182;2023-01-16T02:40:53;4.30;;;1.43;;
19679;SDS011;9989;48.962;9.182;2023-01-16T02:51:43;5.70;;;1.47;;
19679;SDS011;9989;48.962;9.182;2023-01-16T02:56:56;7.40;;;1.80;;
19679;SDS011;9989;48.962;9.182;2023-01-16T02:59:29;6.27;;;1.80;;
19679;SDS011;9989;48.962;9.182;2023-01-16T03:01:55;6.53;;;1.80;;
19679;SDS011;9989;48.962;9.182;2023-01-16T03:15:26;7.97;;;2.17;;
19679;SDS011;9989;48.962;9.182;2023-01-16T03:26:14;8.07;;;1.93;;
19679;SDS011;9989;48.962;9.182;2023-01-16T03:31:37;6.27;;;1.63;;
19679;SDS011;9989;48.962;9.182;2023-01-16T03:34:07;5.20;;;1.70;;
19679;SDS011;9989;48.962;9.182;2023-01-16T03:36:37;4.07;;;1.60;;
19679;SDS011;9989;48.962;9.182;2023-01-16T03:39:06;7.63;;;1.90;;
19679;SDS011;9989;48.962;9.182;2023-01-16T03:41:34;5.03;;;1.53;;
19679;SDS011;9989;48.962;9.182;2023-01-16T03:44:07;4.80;;;1.50;;
19679;SDS011;9989;48.962;9.182;2023-01-16T03:46:39;5.33;;;1.80;;
19679;SDS011;9989;48.962;9.182;2023-01-16T03:49:11;5.83;;;1.80;;
19679;SDS011;9989;48.962;9.182;2023-01-16T03:51:48;8.03;;;2.37;;
19679;SDS011;9989;48.962;9.182;2023-01-16T03:54:25;5.17;;;1.83;;
19679;SDS011;9989;48.962;9.182;2023-01-16T03:56:56;8.50;;;2.43;;
19679;SDS011;9989;48.962;9.182;2023-01-16T03:59:31;8.43;;;2.43;;
19679;SDS011;9989;48.962;9.182;2023-01-16T04:01:58;13.23;;;2.80;;
19679;SDS011;9989;48.962;9.182;2023-01-16T04:04:38;8.73;;;2.10;;
19679;SDS011;9989;48.962;9.182;2023-01-16T04:07:12;8.70;;;1.90;;
19679;SDS011;9989;48.962;9.182;2023-01-16T04:12:58;5.17;;;1.73;;
19679;SDS011;9989;48.962;9.182;2023-01-16T04:15:31;5.30;;;1.90;;
19679;SDS011;9989;48.962;9.182;2023-01-16T04:17:59;6.17;;;2.53;;
19679;SDS011;9989;48.962;9.182;2023-01-16T04:20:25;4.53;;;1.63;;
19679;SDS011;9989;48.962;9.182;2023-01-16T04:22:52;5.97;;;1.67;;
19679;SDS011;9989;48.962;9.182;2023-01-16T04:25:18;5.17;;;1.97;;
19679;SDS011;9989;48.962;9.182;2023-01-16T04:27:44;5.53;;;1.87;;
19679;SDS011;9989;48.962;9.182;2023-01-16T04:30:10;4.30;;;1.70;;
19679;SDS011;9989;48.962;9.182;2023-01-16T04:32:36;5.67;;;1.80;;
19679;SDS011;9989;48.962;9.182;2023-01-16T04:35:03;4.87;;;1.60;;
19679;SDS011;9989;48.962;9.182;2023-01-16T04:37:29;4.13;;;1.47;;
19679;SDS011;9989;48.962;9.182;2023-01-16T04:39:54;5.13;;;1.50;;
19679;SDS011;9989;48.962;9.182;2023-01-16T04:42:20;5.77;;;1.57;;
19679;SDS011;9989;48.962;9.182;2023-01-16T04:44:46;7.53;;;2.30;;
19679;SDS011;9989;48.962;9.182;2023-01-16T04:47:11;4.37;;;1.77;;
19679;SDS011;9989;48.962;9.182;2023-01-16T04:49:37;4.73;;;1.60;;
19679;SDS011;9989;48.962;9.182;2023-01-16T04:52:03;3.73;;;1.77;;
19679;SDS011;9989;48.962;9.182;2023-01-16T04:54:29;5.93;;;1.40;;
19679;SDS011;9989;48.962;9.182;2023-01-16T04:56:55;4.27;;;1.60;;
19679;SDS011;9989;48.962;9.182;2023-01-16T04:59:20;3.27;;;1.80;;
19679;SDS011;9989;48.962;9.182;2023-01-16T05:01:46;4.93;;;1.50;;
19679;SDS011;9989;48.962;9.182;2023-01-16T05:04:13;5.70;;;1.77;;
19679;SDS011;9989;48.962;9.182;2023-01-16T05:06:39;8.00;;;1.87;;
19679;SDS011;9989;48.962;9.182;2023-01-16T05:09:05;3.63;;;1.50;;
19679;SDS011;9989;48.962;9.182;2023-01-16T05:11:31;8.17;;;1.90;;
19679;SDS011;9989;48.962;9.182;2023-01-16T05:13:58;4.03;;;1.37;;
19679;SDS011;9989;48.962;9.182;2023-01-16T05:16:24;7.83;;;1.83;;
19679;SDS011;9989;48.962;9.182;2023-01-16T05:18:50;5.13;;;1.90;;
19679;SDS011;9989;48.962;9.182;2023-01-16T05:21:16;6.57;;;1.90;;
19679;SDS011;9989;48.962;9.182;2023-01-16T05:23:41;4.50;;;1.67;;
19679;SDS011;9989;48.962;9.182;2023-01-16T05:26:07;7.67;;;2.70;;
19679;SDS011;9989;48.962;9.182;2023-01-16T05:28:34;5.00;;;1.80;;
19679;SDS011;9989;48.962;9.182;2023-01-16T05:31:00;6.13;;;2.10;;
19679;SDS011;9989;48.962;9.182;2023-01-16T05:33:26;6.73;;;2.17;;
19679;SDS011;9989;48.962;9.182;2023-01-16T05:35:52;4.73;;;1.70;;
19679;SDS011;9989;48.962;9.182;2023-01-16T05:38:18;4.67;;;1.83;;
19679;SDS011;9989;48.962;9.182;2023-01-16T05:40:44;7.13;;;1.87;;
19679;SDS011;9989;48.962;9.182;2023-01-16T05:43:10;8.37;;;2.30;;
19679;SDS011;9989;48.962;9.182;2023-01-16T05:45:36;8.50;;;2.20;;
19679;SDS011;9989;48.962;9.182;2023-01-16T05:48:01;9.83;;;2.80;;
19679;SDS011;9989;48.962;9.182;2023-01-16T05:50:27;14.53;;;5.50;;
19679;SDS011;9989;48.962;9.182;2023-01-16T05:52:53;33.23;;;13.73;;
19679;SDS011;9989;48.962;9.182;2023-01-16T05:55:18;45.27;;;17.03;;
19679;SDS011;9989;48.962;9.182;2023-01-16T05:57:44;27.23;;;12.00;;
19679;SDS011;9989;48.962;9.182;2023-01-16T06:00:10;18.77;;;8.37;;
19679;SDS011;9989;48.962;9.182;2023-01-16T06:02:36;14.97;;;6.20;;
19679;SDS011;9989;48.962;9.182;2023-01-16T06:05:02;13.13;;;5.53;;
19679;SDS011;9989;48.962;9.182;2023-01-16T06:07:28;12.67;;;3.60;;
19679;SDS011;9989;48.962;9.182;2023-01-16T06:09:53;7.80;;;2.77;;
19679;SDS011;9989;48.962;9.182;2023-01-16T06:12:19;5.47;;;2.00;;
19679;SDS011;9989;48.962;9.182;2023-01-16T06:14:45;7.00;;;2.53;;
19679;SDS011;9989;48.962;9.182;2023-01-16T06:17:11;6.73;;;2.33;;
19679;SDS011;9989;48.962;9.182;2023-01-16T06:19:39;6.83;;;2.63;;
19679;SDS011;9989;48.962;9.182;2023-01-16T06:22:05;8.27;;;2.33;;
19679;SDS011;9989;48.962;9.182;2023-01-16T06:24:31;7.03;;;2.03;;
19679;SDS011;9989;48.962;9.182;2023-01-16T06:26:57;8.23;;;2.50;;
19679;SDS011;9989;48.962;9.182;2023-01-16T06:29:23;6.87;;;2.37;;
19679;SDS011;9989;48.962;9.182;2023-01-16T06:31:49;4.73;;;2.00;;
19679;SDS011;9989;48.962;9.182;2023-01-16T06:34:15;4.80;;;1.97;;
19679;SDS011;9989;48.962;9.182;2023-01-16T06:36:40;5.17;;;1.70;;
19679;SDS011;9989;48.962;9.182;2023-01-16T06:39:06;6.53;;;2.10;;
19679;SDS011;9989;48.962;9.182;2023-01-16T06:41:32;5.07;;;1.63;;
19679;SDS011;9989;48.962;9.182;2023-01-16T06:43:58;5.23;;;1.77;;
19679;SDS011;9989;48.962;9.182;2023-01-16T06:46:23;6.33;;;1.90;;
19679;SDS011;9989;48.962;9.182;2023-01-16T06:48:49;5.40;;;1.70;;
19679;SDS011;9989;48.962;9.182;2023-01-16T06:51:15;6.73;;;2.33;;
19679;SDS011;9989;48.962;9.182;2023-01-16T06:53:40;6.57;;;2.00;;
19679;SDS011;9989;48.962;9.182;2023-01-16T06:56:06;6.37;;;2.13;;
19679;SDS011;9989;48.962;9.182;2023-01-16T06:58:32;4.33;;;2.10;;
19679;SDS011;9989;48.962;9.182;2023-01-16T07:00:57;5.97;;;2.30;;
19679;SDS011;9989;48.962;9.182;2023-01-16T07:03:23;6.23;;;2.20;;
19679;SDS011;9989;48.962;9.182;2023-01-16T07:05:49;8.00;;;2.57;;
19679;SDS011;9989;48.962;9.182;2023-01-16T07:08:15;5.73;;;1.93;;
19679;SDS011;9989;48.962;9.182;2023-01-16T07:10:41;5.63;;;2.10;;
19679;SDS011;9989;48.962;9.182;2023-01-16T07:13:07;5.17;;;2.70;;
19679;SDS011;9989;48.962;9.182;2023-01-16T07:15:32;4.97;;;1.90;;
19679;SDS011;9989;48.962;9.182;2023-01-16T07:18:17;5.47;;;1.73;;
19679;SDS011;9989;48.962;9.182;2023-01-16T07:21:02;8.10;;;2.10;;
19679;SDS011;9989;48.962;9.182;2023-01-16T07:23:49;5.70;;;1.80;;
19679;SDS011;9989;48.962;9.182;2023-01-16T07:26:21;4.10;;;1.70;;
19679;SDS011;9989;48.962;9.182;2023-01-16T07:28:47;6.23;;;2.10;;
19679;SDS011;9989;48.962;9.182;2023-01-16T07:31:14;8.53;;;2.80;;
19679;SDS011;9989;48.962;9.182;2023-01-16T07:33:41;8.90;;;2.37;;
19679;SDS011;9989;48.962;9.182;2023-01-16T07:36:06;7.30;;;2.40;;
19679;SDS011;9989;48.962;9.182;2023-01-16T07:38:32;7.57;;;2.10;;
19679;SDS011;9989;48.962;9.182;2023-01-16T07:40:58;5.53;;;2.00;;
19679;SDS011;9989;48.962;9.182;2023-01-16T07:43:23;7.30;;;2.43;;
19679;SDS011;9989;48.962;9.182;2023-01-16T07:45:49;10.10;;;2.63;;
19679;SDS011;9989;48.962;9.182;2023-01-16T07:48:26;9.53;;;3.53;;
19679;SDS011;9989;48.962;9.182;2023-01-16T07:50:52;23.07;;;12.13;;
19679;SDS011;9989;48.962;9.182;2023-01-16T07:53:20;26.03;;;15.00;;
19679;SDS011;9989;48.962;9.182;2023-01-16T07:55:51;23.00;;;13.47;;
19679;SDS011;9989;48.962;9.182;2023-01-16T07:58:25;16.83;;;11.17;;
19679;SDS011;9989;48.962;9.182;2023-01-16T08:00:54;14.77;;;8.60;;
19679;SDS011;9989;48.962;9.182;2023-01-16T08:03:21;25.00;;;13.73;;
19679;SDS011;9989;48.962;9.182;2023-01-16T08:05:47;14.07;;;6.50;;
19679;SDS011;9989;48.962;9.182;2023-01-16T08:08:15;10.03;;;3.70;;
19679;SDS011;9989;48.962;9.182;2023-01-16T08:10:41;14.80;;;6.67;;
19679;SDS011;9989;48.962;9.182;2023-01-16T08:13:06;12.13;;;5.17;;
19679;SDS011;9989;48.962;9.182;2023-01-16T08:15:35;11.67;;;4.60;;
19679;SDS011;9989;48.962;9.182;2023-01-16T08:18:00;8.90;;;3.67;;
19679;SDS011;9989;48.962;9.182;2023-01-16T08:20:28;8.40;;;3.50;;
19679;SDS011;9989;48.962;9.182;2023-01-16T08:22:53;8.00;;;2.83;;
19679;SDS011;9989;48.962;9.182;2023-01-16T08:25:22;7.03;;;3.03;;
19679;SDS011;9989;48.962;9.182;2023-01-16T08:27:48;5.73;;;2.30;;
19679;SDS011;9989;48.962;9.182;2023-01-16T08:30:14;5.70;;;2.33;;
19679;SDS011;9989;48.962;9.182;2023-01-16T08:32:40;7.83;;;3.10;;
19679;SDS011;9989;48.962;9.182;2023-01-16T08:35:07;10.27;;;3.67;;
19679;SDS011;9989;48.962;9.182;2023-01-16T08:37:33;9.40;;;4.10;;
19679;SDS011;9989;48.962;9.182;2023-01-16T08:39:59;9.53;;;4.63;;
19679;SDS011;9989;48.962;9.182;2023-01-16T08:42:26;10.27;;;4.73;;
19679;SDS011;9989;48.962;9.182;2023-01-16T08:45:11;9.30;;;4.70;;
19679;SDS011;9989;48.962;9.182;2023-01-16T08:47:56;15.30;;;6.57;;
19679;SDS011;9989;48.962;9.182;2023-01-16T08:50:42;16.70;;;8.23;;
19679;SDS011;9989;48.962;9.182;2023-01-16T08:53:27;11.40;;;5.13;;
19679;SDS011;9989;48.962;9.182;2023-01-16T08:55:53;10.70;;;4.63;;
19679;SDS011;9989;48.962;9.182;2023-01-16T08:58:19;11.17;;;4.50;;
19679;SDS011;9989;48.962;9.182;2023-01-16T09:00:48;10.80;;;4.60;;
19679;SDS011;9989;48.962;9.182;2023-01-16T09:03:15;8.13;;;3.17;;
19679;SDS011;9989;48.962;9.182;2023-01-16T09:05:42;6.93;;;2.80;;
19679;SDS011;9989;48.962;9.182;2023-01-16T09:08:08;6.57;;;2.40;;
19679;SDS011;9989;48.962;9.182;2023-01-16T09:10:33;6.33;;;2.03;;
19679;SDS011;9989;48.962;9.182;2023-01-16T09:12:59;7.93;;;1.77;;
19679;SDS011;9989;48.962;9.182;2023-01-16T09:15:43;14.40;;;2.47;;
19679;SDS011;9989;48.962;9.182;2023-01-16T09:18:08;7.23;;;3.17;;
19679;SDS011;9989;48.962;9.182;2023-01-16T09:20:34;4.53;;;1.67;;
19679;SDS011;9989;48.962;9.182;2023-01-16T09:23:00;7.30;;;2.80;;
19679;SDS011;9989;48.962;9.182;2023-01-16T09:25:28;7.03;;;2.30;;
19679;SDS011;9989;48.962;9.182;2023-01-16T09:27:54;7.27;;;2.97;;
19679;SDS011;9989;48.962;9.182;2023-01-16T09:30:20;5.70;;;2.13;;
19679;SDS011;9989;48.962;9.182;2023-01-16T09:32:46;6.20;;;2.23;;
19679;SDS011;9989;48.962;9.182;2023-01-16T09:35:12;6.17;;;2.20;;
19679;SDS011;9989;48.962;9.182;2023-01-16T09:37:38;3.57;;;1.60;;
19679;SDS011;9989;48.962;9.182;2023-01-16T09:40:06;10.53;;;2.00;;
19679;SDS011;9989;48.962;9.182;2023-01-16T09:42:39;6.93;;;2.00;;
19679;SDS011;9989;48.962;9.182;2023-01-16T09:45:30;4.73;;;1.90;;
19679;SDS011;9989;48.962;9.182;2023-01-16T09:48:02;4.87;;;1.80;;
19679;SDS011;9989;48.962;9.182;2023-01-16T09:50:44;3.90;;;1.60;;
19679;SDS011;9989;48.962;9.182;2023-01-16T09:53:18;5.03;;;1.90;;
19679;SDS011;9989;48.962;9.182;2023-01-16T09:56:09;3.33;;;1.27;;
19679;SDS011;9989;48.962;9.182;2023-01-16T09:59:37;7.97;;;2.93;;
19679;SDS011;9989;48.962;9.182;2023-01-16T10:01:53;9.27;;;3.23;;
19679;SDS011;9989;48.962;9.182;2023-01-16T10:04:24;6.77;;;2.70;;
19679;SDS011;9989;48.962;9.182;2023-01-16T10:10:01;5.57;;;1.70;;
19679;SDS011;9989;48.962;9.182;2023-01-16T10:12:34;4.07;;;1.73;;
19679;SDS011;9989;48.962;9.182;2023-01-16T10:15:16;4.63;;;1.67;;
19679;SDS011;9989;48.962;9.182;2023-01-16T10:18:00;5.57;;;2.07;;
19679;SDS011;9989;48.962;9.182;2023-01-16T10:23:05;3.57;;;1.57;;
19679;SDS011;9989;48.962;9.182;2023-01-16T10:26:01;4.50;;;1.53;;
19679;SDS011;9989;48.962;9.182;2023-01-16T10:33:35;5.00;;;1.60;;
19679;SDS011;9989;48.962;9.182;2023-01-16T10:36:06;6.00;;;1.53;;
19679;SDS011;9989;48.962;9.182;2023-01-16T10:41:12;3.67;;;2.00;;
19679;SDS011;9989;48.962;9.182;2023-01-16T10:44:19;2.70;;;1.20;;
19679;SDS011;9989;48.962;9.182;2023-01-16T10:47:12;5.83;;;2.07;;
19679;SDS011;9989;48.962;9.182;2023-01-16T10:49:59;5.70;;;2.10;;
19679;SDS011;9989;48.962;9.182;2023-01-16T10:52:25;4.50;;;2.10;;
19679;SDS011;9989;48.962;9.182;2023-01-16T10:54:52;3.77;;;1.40;;
19679;SDS011;9989;48.962;9.182;2023-01-16T10:57:20;1.83;;;1.10;;
19679;SDS011;9989;48.962;9.182;2023-01-16T10:59:46;2.67;;;1.30;;
19679;SDS011;9989;48.962;9.182;2023-01-16T11:02:16;3.07;;;1.33;;
19679;SDS011;9989;48.962;9.182;2023-01-16T11:04:59;6.37;;;1.43;;
19679;SDS011;9989;48.962;9.182;2023-01-16T11:07:27;1.63;;;1.10;;
19679;SDS011;9989;48.962;9.182;2023-01-16T11:09:54;7.60;;;1.97;;
19679;SDS011;9989;48.962;9.182;2023-01-16T11:12:25;3.13;;;1.30;;
19679;SDS011;9989;48.962;9.182;2023-01-16T11:15:20;2.77;;;1.23;;
19679;SDS011;9989;48.962;9.182;2023-01-16T11:20:54;3.57;;;1.70;;
19679;SDS011;9989;48.962;9.182;2023-01-16T11:23:26;7.83;;;1.60;;
19679;SDS011;9989;48.962;9.182;2023-01-16T11:25:58;2.93;;;1.10;;
19679;SDS011;9989;48.962;9.182;2023-01-16T11:28:28;1.90;;;1.03;;
19679;SDS011;9989;48.962;9.182;2023-01-16T11:31:02;4.17;;;1.47;;
19679;SDS011;9989;48.962;9.182;2023-01-16T11:33:35;2.93;;;1.40;;
19679;SDS011;9989;48.962;9.182;2023-01-16T11:36:04;4.40;;;1.57;;
19679;SDS011;9989;48.962;9.182;2023-01-16T11:38:32;3.47;;;1.50;;
19679;SDS011;9989;48.962;9.182;2023-01-16T11:41:00;1.93;;;1.10;;
19679;SDS011;9989;48.962;9.182;2023-01-16T11:43:29;5.27;;;1.60;;
19679;SDS011;9989;48.962;9.182;2023-01-16T11:48:45;2.90;;;1.27;;
19679;SDS011;9989;48.962;9.182;2023-01-16T11:51:19;6.13;;;2.40;;
19679;SDS011;9989;48.962;9.182;2023-01-16T11:53:47;4.50;;;1.70;;
19679;SDS011;9989;48.962;9.182;2023-01-16T12:04:32;7.47;;;1.60;;
19679;SDS011;9989;48.962;9.182;2023-01-16T12:12:27;3.00;;;1.50;;
19679;SDS011;9989;48.962;9.182;2023-01-16T12:15:54;1.93;;;1.00;;
19679;SDS011;9989;48.962;9.182;2023-01-16T12:21:02;3.83;;;1.30;;
19679;SDS011;9989;48.962;9.182;2023-01-16T12:45:56;3.00;;;1.20;;
19679;SDS011;9989;48.962;9.182;2023-01-16T12:51:22;2.73;;;1.20;;
19679;SDS011;9989;48.962;9.182;2023-01-16T12:59:41;3.03;;;1.43;;
19679;SDS011;9989;48.962;9.182;2023-01-16T13:02:13;3.33;;;1.30;;
19679;SDS011;9989;48.962;9.182;2023-01-16T13:05:02;3.87;;;1.10;;
19679;SDS011;9989;48.962;9.182;2023-01-16T13:07:33;2.40;;;0.93;;
19679;SDS011;9989;48.962;9.182;2023-01-16T13:13:06;2.10;;;1.07;;
19679;SDS011;9989;48.962;9.182;2023-01-16T13:15:46;5.43;;;2.43;;
19679;SDS011;9989;48.962;9.182;2023-01-16T13:18:33;1.57;;;0.90;;
19679;SDS011;9989;48.962;9.182;2023-01-16T13:21:04;4.20;;;1.37;;
19679;SDS011;9989;48.962;9.182;2023-01-16T13:24:00;4.40;;;1.70;;
19679;SDS011;9989;48.962;9.182;2023-01-16T13:26:44;1.47;;;1.00;;
19679;SDS011;9989;48.962;9.182;2023-01-16T13:29:16;1.87;;;1.00;;
19679;SDS011;9989;48.962;9.182;2023-01-16T13:31:53;2.00;;;1.00;;
19679;SDS011;9989;48.962;9.182;2023-01-16T13:34:23;3.80;;;1.13;;
19679;SDS011;9989;48.962;9.182;2023-01-16T13:39:55;2.60;;;1.00;;
19679;SDS011;9989;48.962;9.182;2023-01-16T13:42:52;1.97;;;0.90;;
19679;SDS011;9989;48.962;9.182;2023-01-16T13:45:43;4.57;;;1.70;;
19679;SDS011;9989;48.962;9.182;2023-01-16T13:48:19;4.93;;;1.77;;
19679;SDS011;9989;48.962;9.182;2023-01-16T13:50:48;2.43;;;0.70;;
19679;SDS011;9989;48.962;9.182;2023-01-16T13:53:19;3.33;;;1.20;;
19679;SDS011;9989;48.962;9.182;2023-01-16T13:55:47;1.20;;;0.80;;
19679;SDS011;9989;48.962;9.182;2023-01-16T14:01:01;2.87;;;0.90;;
19679;SDS011;9989;48.962;9.182;2023-01-16T14:03:32;1.93;;;0.83;;
19679;SDS011;9989;48.962;9.182;2023-01-16T14:17:26;3.27;;;0.73;;
19679;SDS011;9989;48.962;9.182;2023-01-16T14:20:34;2.37;;;1.00;;
19679;SDS011;9989;48.962;9.182;2023-01-16T14:23:02;2.33;;;1.00;;
19679;SDS011;9989;48.962;9.182;2023-01-16T14:25:52;2.73;;;0.90;;
19679;SDS011;9989;48.962;9.182;2023-01-16T14:28:19;0.97;;;0.70;;
19679;SDS011;9989;48.962;9.182;2023-01-16T14:30:45;3.40;;;1.17;;
19679;SDS011;9989;48.962;9.182;2023-01-16T14:33:12;2.83;;;1.00;;
19679;SDS011;9989;48.962;9.182;2023-01-16T14:35:47;1.43;;;0.73;;
19679;SDS011;9989;48.962;9.182;2023-01-16T14:38:17;1.93;;;0.90;;
19679;SDS011;9989;48.962;9.182;2023-01-16T14:40:54;2.70;;;1.00;;
19679;SDS011;9989;48.962;9.182;2023-01-16T14:43:46;2.13;;;0.80;;
19679;SDS011;9989;48.962;9.182;2023-01-16T14:46:51;0.90;;;0.70;;
19679;SDS011;9989;48.962;9.182;2023-01-16T14:55:29;1.50;;;0.80;;
19679;SDS011;9989;48.962;9.182;2023-01-16T14:58:06;1.57;;;0.73;;
19679;SDS011;9989;48.962;9.182;2023-01-16T15:00:33;1.97;;;0.97;;
19679;SDS011;9989;48.962;9.182;2023-01-16T15:03:04;0.70;;;0.60;;
19679;SDS011;9989;48.962;9.182;2023-01-16T15:05:50;2.40;;;0.80;;
19679;SDS011;9989;48.962;9.182;2023-01-16T15:10:52;1.30;;;0.70;;
19679;SDS011;9989;48.962;9.182;2023-01-16T15:16:14;5.03;;;1.10;;
19679;SDS011;9989;48.962;9.182;2023-01-16T15:18:43;3.10;;;0.83;;
19679;SDS011;9989;48.962;9.182;2023-01-16T15:21:28;3.37;;;1.30;;
19679;SDS011;9989;48.962;9.182;2023-01-16T15:24:22;3.90;;;1.00;;
19679;SDS011;9989;48.962;9.182;2023-01-16T15:29:51;2.50;;;0.90;;
19679;SDS011;9989;48.962;9.182;2023-01-16T15:32:20;2.07;;;1.10;;
19679;SDS011;9989;48.962;9.182;2023-01-16T15:34:47;1.73;;;1.00;;
19679;SDS011;9989;48.962;9.182;2023-01-16T15:37:29;1.57;;;1.10;;
19679;SDS011;9989;48.962;9.182;2023-01-16T15:39:57;2.33;;;1.00;;
19679;SDS011;9989;48.962;9.182;2023-01-16T15:42:26;3.50;;;1.57;;
19679;SDS011;9989;48.962;9.182;2023-01-16T15:45:25;3.23;;;1.20;;
19679;SDS011;9989;48.962;9.182;2023-01-16T15:51:03;0.97;;;0.87;;
19679;SDS011;9989;48.962;9.182;2023-01-16T15:53:44;1.73;;;1.00;;
19679;SDS011;9989;48.962;9.182;2023-01-16T15:56:21;1.47;;;0.80;;
19679;SDS011;9989;48.962;9.182;2023-01-16T15:58:48;2.73;;;1.10;;
19679;SDS011;9989;48.962;9.182;2023-01-16T16:01:23;2.27;;;1.00;;
19679;SDS011;9989;48.962;9.182;2023-01-16T16:03:53;1.47;;;0.97;;
19679;SDS011;9989;48.962;9.182;2023-01-16T16:06:20;1.60;;;0.90;;
19679;SDS011;9989;48.962;9.182;2023-01-16T16:08:47;2.53;;;0.90;;
19679;SDS011;9989;48.962;9.182;2023-01-16T16:11:20;2.80;;;1.00;;
19679;SDS011;9989;48.962;9.182;2023-01-16T16:14:06;4.53;;;1.23;;
19679;SDS011;9989;48.962;9.182;2023-01-16T16:17:14;2.30;;;1.00;;
19679;SDS011;9989;48.962;9.182;2023-01-16T16:23:23;2.20;;;1.17;;
19679;SDS011;9989;48.962;9.182;2023-01-16T16:25:51;1.90;;;0.90;;
19679;SDS011;9989;48.962;9.182;2023-01-16T16:28:26;1.80;;;0.93;;
19679;SDS011;9989;48.962;9.182;2023-01-16T16:36:25;4.13;;;1.00;;
19679;SDS011;9989;48.962;9.182;2023-01-16T16:38:51;2.47;;;1.10;;
19679;SDS011;9989;48.962;9.182;2023-01-16T16:44:35;2.73;;;1.10;;
19679;SDS011;9989;48.962;9.182;2023-01-16T16:47:01;4.00;;;1.20;;
19679;SDS011;9989;48.962;9.182;2023-01-16T16:49:28;3.90;;;1.57;;
19679;SDS011;9989;48.962;9.182;2023-01-16T16:52:03;2.40;;;1.37;;
19679;SDS011;9989;48.962;9.182;2023-01-16T16:54:53;1.97;;;1.10;;
19679;SDS011;9989;48.962;9.182;2023-01-16T16:57:20;2.63;;;1.40;;
19679;SDS011;9989;48.962;9.182;2023-01-16T16:59:49;3.47;;;1.70;;
19679;SDS011;9989;48.962;9.182;2023-01-16T17:02:15;2.93;;;1.33;;
19679;SDS011;9989;48.962;9.182;2023-01-16T17:04:42;3.53;;;1.50;;
19679;SDS011;9989;48.962;9.182;2023-01-16T17:07:08;2.93;;;1.30;;
19679;SDS011;9989;48.962;9.182;2023-01-16T17:09:34;3.07;;;1.37;;
19679;SDS011;9989;48.962;9.182;2023-01-16T17:12:00;4.53;;;1.43;;
19679;SDS011;9989;48.962;9.182;2023-01-16T17:14:42;3.73;;;1.60;;
19679;SDS011;9989;48.962;9.182;2023-01-16T17:17:11;2.57;;;1.30;;
19679;SDS011;9989;48.962;9.182;2023-01-16T17:19:39;3.13;;;1.40;;
19679;SDS011;9989;48.962;9.182;2023-01-16T17:22:05;5.07;;;2.23;;
19679;SDS011;9989;48.962;9.182;2023-01-16T17:24:31;4.00;;;1.40;;
19679;SDS011;9989;48.962;9.182;2023-01-16T17:26:57;3.47;;;1.67;;
19679;SDS011;9989;48.962;9.182;2023-01-16T17:29:22;3.90;;;1.77;;
19679;SDS011;9989;48.962;9.182;2023-01-16T17:31:48;4.53;;;1.83;;
19679;SDS011;9989;48.962;9.182;2023-01-16T17:34:15;4.40;;;1.80;;
19679;SDS011;9989;48.962;9.182;2023-01-16T17:36:43;4.43;;;2.10;;
19679;SDS011;9989;48.962;9.182;2023-01-16T17:39:11;4.30;;;1.83;;
19679;SDS011;9989;48.962;9.182;2023-01-16T17:41:37;4.50;;;1.90;;
19679;SDS011;9989;48.962;9.182;2023-01-16T17:44:16;6.13;;;2.33;;
19679;SDS011;9989;48.962;9.182;2023-01-16T17:47:05;4.40;;;1.80;;
19679;SDS011;9989;48.962;9.182;2023-01-16T17:49:32;3.37;;;1.70;;
19679;SDS011;9989;48.962;9.182;2023-01-16T17:52:18;4.67;;;1.90;;
19679;SDS011;9989;48.962;9.182;2023-01-16T17:54:44;2.63;;;1.67;;
19679;SDS011;9989;48.962;9.182;2023-01-16T17:57:28;3.40;;;1.40;;
19679;SDS011;9989;48.962;9.182;2023-01-16T17:59:54;5.37;;;1.90;;
19679;SDS011;9989;48.962;9.182;2023-01-16T18:02:19;3.17;;;1.50;;
19679;SDS011;9989;48.962;9.182;2023-01-16T18:04:45;3.33;;;1.50;;
19679;SDS011;9989;48.962;9.182;2023-01-16T18:07:10;3.30;;;1.60;;
19679;SDS011;9989;48.962;9.182;2023-01-16T18:09:38;4.37;;;1.60;;